Kimry, Russia
Current Conditions -  °F | °C
As of 1:00 AM on Wednesday 26 Nov 2014 (Local Time) from UUEE Reporting Station
Haze Haze  
Wind Chill: 13°   Ceiling: 300
Heat Index: 23°   Visibility: 2.6mi
Dew Point: 21°   Wind: 9mph
Humidity: 93%   Direction: 210°SSW
Pressure: 30.5"   Gusts: NA
Location:  56.87°N, 37.35°E
Report Text: UUEE 252200Z 21004MPS 4300 BR OVC003 M05/M06 Q1033 25150057NOSIG
Loading
Personal Weather Stations






























Interactive Weather Map New forecast layout! Learn more

10-Day Weather Forecast

Advertisements
Track Severe Weather on mobile